San Francisco, California
Traffic Map
Current Weather Conditions
San Francisco, California
Few Clouds
Few Clouds
65°
Feels Like: 65°
Wind Chill: 65° Ceiling: Unl
Heat Index: 65° Visibility: 10mi
Dew Point: 58° Wind: 12mph
Humidity: 78% Direction: 290° (WNW)
Pressure: 29.85in Gusts: 0mph
Raw Report DataKSFO 021556Z 29010KT 10SM FEW007 18/14 A2985 RMK AO2 SLP107 T01830144
Traffic Incident Summary
Active as of:
Severity:
Category:
InformationThere was an issue retrieving the traffic information for this location. Please try a different location or try again shortly.
Advertisements
Track Severe Weather on mobile